Time;durP1;ratioP1;P1;durP2;ratioP2;P2;SDS_P1;SDS_P2;PMS_P1;PMS_P2;Temp;Humidity;BMP_temperature;BMP_pressure;BME280_temperature;BME280_humidity;BME280_pressure;Samples;Min_cycle;Max_cycle;Signal;HPM_P1;HPM_P2
2021/08/26 00:07:56;;;;;;;10.20;6.57;;;13.80;99.90;;;;;;5084612;28;20062;-76
2021/08/26 00:10:24;;;;;;;9.80;6.63;;;13.70;99.90;;;;;;5078476;28;20042;-75
2021/08/26 00:12:53;;;;;;;11.25;7.18;;;13.80;99.90;;;;;;5078789;28;20514;-73
2021/08/26 00:15:19;;;;;;;11.15;7.22;;;13.70;99.90;;;;;;5085225;28;20024;-73
2021/08/26 00:17:45;;;;;;;12.27;7.35;;;13.60;99.90;;;;;;5077921;28;20021;-74
2021/08/26 00:20:12;;;;;;;12.10;7.57;;;13.70;99.90;;;;;;5071834;28;20035;-73
2021/08/26 00:22:37;;;;;;;8.52;6.95;;;13.70;99.90;;;;;;5075941;28;20021;-73
2021/08/26 00:25:04;;;;;;;11.23;6.72;;;13.60;99.90;;;;;;5071514;28;20032;-74
2021/08/26 00:27:30;;;;;;;9.30;6.63;;;13.70;99.90;;;;;;5085982;28;20702;-73
2021/08/26 00:29:55;;;;;;;9.18;6.15;;;13.60;99.90;;;;;;5084537;28;20039;-73
2021/08/26 00:32:21;;;;;;;9.95;7.00;;;13.80;99.90;;;;;;5071573;28;20048;-74
2021/08/26 00:34:46;;;;;;;10.40;7.30;;;13.90;99.90;;;;;;5071501;28;20091;-74
2021/08/26 00:37:12;;;;;;;9.98;6.78;;;13.90;99.90;;;;;;5071597;28;20382;-74
2021/08/26 00:39:37;;;;;;;9.02;6.55;;;13.80;99.90;;;;;;5071585;28;20456;-74
2021/08/26 00:42:04;;;;;;;9.98;7.10;;;14.00;99.90;;;;;;5071526;28;20025;-74
2021/08/26 00:44:30;;;;;;;9.48;6.68;;;14.20;99.90;;;;;;5078176;28;20107;-74
2021/08/26 00:46:55;;;;;;;11.63;5.78;;;14.20;99.90;;;;;;5078289;28;20120;-73
2021/08/26 00:49:21;;;;;;;9.10;6.55;;;14.40;99.90;;;;;;5071410;28;20116;-73
2021/08/26 00:51:46;;;;;;;8.73;6.18;;;14.50;99.90;;;;;;5072491;28;20056;-73
2021/08/26 00:54:13;;;;;;;7.90;5.65;;;14.30;99.90;;;;;;5084353;28;20450;-73
2021/08/26 00:56:39;;;;;;;7.38;6.13;;;14.40;99.90;;;;;;5100652;28;20019;-73
2021/08/26 00:59:06;;;;;;;8.65;5.82;;;14.40;99.90;;;;;;5089203;28;20475;-73
2021/08/26 01:01:47;;;;;;;7.45;5.65;;;14.50;99.90;;;;;;5082271;28;20103;-73
2021/08/26 01:04:19;;;;;;;9.85;6.60;;;14.40;99.90;;;;;;5075470;28;20386;-74
2021/08/26 01:07:06;;;;;;;9.95;6.60;;;14.30;99.90;;;;;;5075296;28;20024;-74
2021/08/26 01:09:42;;;;;;;8.80;6.15;;;14.10;99.90;;;;;;5075457;28;20027;-74
2021/08/26 01:12:12;;;;;;;10.07;6.10;;;14.10;99.90;;;;;;5094130;28;20021;-75
2021/08/26 01:14:38;;;;;;;9.38;6.30;;;14.20;99.90;;;;;;5087711;28;20016;-74
2021/08/26 01:17:04;;;;;;;10.80;7.03;;;14.20;99.90;;;;;;5083736;28;20024;-74
2021/08/26 01:19:30;;;;;;;10.45;6.10;;;14.10;99.90;;;;;;5080253;28;20447;-74
2021/08/26 01:21:55;;;;;;;10.02;6.32;;;14.10;99.90;;;;;;5079141;28;20026;-73
2021/08/26 01:24:25;;;;;;;10.40;6.97;;;14.10;99.90;;;;;;5093916;28;20393;-74
2021/08/26 01:26:53;;;;;;;10.68;6.22;;;14.10;99.90;;;;;;5074927;28;20048;-74
2021/08/26 01:29:20;;;;;;;8.27;5.93;;;14.00;99.90;;;;;;5074931;28;20695;-73
2021/08/26 01:31:47;;;;;;;8.65;6.45;;;14.10;99.90;;;;;;5074791;28;20017;-74
2021/08/26 01:34:19;;;;;;;10.80;6.82;;;14.10;99.90;;;;;;5073511;28;20025;-73
2021/08/26 01:36:45;;;;;;;7.95;6.10;;;14.10;99.90;;;;;;5073525;28;20159;-73
2021/08/26 01:39:12;;;;;;;9.70;6.70;;;14.10;99.90;;;;;;5074621;28;20035;-74
2021/08/26 01:41:42;;;;;;;10.52;6.72;;;14.00;99.90;;;;;;5074755;28;20077;-74
2021/08/26 01:44:09;;;;;;;12.60;7.03;;;14.00;99.90;;;;;;5074548;28;20103;-74
2021/08/26 01:46:35;;;;;;;9.05;6.43;;;13.90;99.90;;;;;;5073154;28;20021;-73
2021/08/26 01:49:01;;;;;;;10.75;6.50;;;14.00;99.90;;;;;;5074591;28;20023;-73
2021/08/26 01:51:27;;;;;;;9.10;6.68;;;14.00;99.90;;;;;;5074512;28;20135;-75
2021/08/26 01:53:53;;;;;;;10.80;6.55;;;14.10;99.90;;;;;;5074237;28;20036;-72
2021/08/26 01:56:19;;;;;;;9.93;6.50;;;14.30;99.90;;;;;;5074248;28;20029;-73
2021/08/26 01:58:44;;;;;;;8.98;6.50;;;14.40;99.90;;;;;;5076528;28;20552;-74
2021/08/26 02:01:10;;;;;;;10.48;6.97;;;14.40;99.90;;;;;;5097380;28;20402;-73
2021/08/26 02:03:37;;;;;;;10.57;6.78;;;14.50;99.90;;;;;;5102341;28;20063;-73
2021/08/26 02:06:03;;;;;;;9.63;6.53;;;14.50;99.90;;;;;;5084045;28;20024;-74
2021/08/26 02:08:29;;;;;;;9.57;6.22;;;14.60;99.90;;;;;;5072948;28;20058;-73
2021/08/26 02:10:54;;;;;;;9.55;6.80;;;14.60;99.90;;;;;;5074249;28;20435;-73
2021/08/26 02:13:20;;;;;;;10.10;6.40;;;14.60;99.90;;;;;;5090739;28;20348;-74
2021/08/26 02:15:46;;;;;;;10.88;5.82;;;14.60;99.90;;;;;;5094211;28;20028;-74
2021/08/26 02:18:12;;;;;;;11.00;5.95;;;14.60;99.90;;;;;;5080946;28;20028;-75
2021/08/26 02:20:37;;;;;;;9.10;6.25;;;14.60;99.90;;;;;;5094348;28;20069;-73
2021/08/26 02:23:03;;;;;;;7.53;5.60;;;14.60;99.90;;;;;;5093933;28;20063;-73
2021/08/26 02:25:28;;;;;;;8.35;6.03;;;14.40;99.90;;;;;;5083203;28;20086;-73
2021/08/26 02:27:54;;;;;;;9.75;6.20;;;14.60;99.90;;;;;;5073798;28;20032;-74
2021/08/26 02:30:19;;;;;;;11.88;6.45;;;14.70;99.90;;;;;;5085282;28;20068;-74
2021/08/26 02:32:45;;;;;;;10.98;6.68;;;14.60;99.90;;;;;;5095194;28;20046;-73
2021/08/26 02:35:10;;;;;;;10.85;6.32;;;14.60;99.90;;;;;;5083340;28;20035;-73
2021/08/26 02:37:36;;;;;;;8.27;6.00;;;14.70;99.90;;;;;;5073604;28;20502;-73
2021/08/26 02:40:02;;;;;;;8.07;6.50;;;14.60;99.90;;;;;;5073654;28;20037;-73
2021/08/26 02:42:29;;;;;;;11.32;6.57;;;14.70;99.90;;;;;;5073423;28;20028;-73
2021/08/26 02:44:55;;;;;;;8.68;6.63;;;14.50;99.90;;;;;;5073335;28;20112;-74
2021/08/26 02:47:21;;;;;;;8.32;6.70;;;14.50;99.90;;;;;;5073471;28;20032;-74
2021/08/26 02:49:46;;;;;;;10.60;7.88;;;14.50;99.90;;;;;;5072145;28;20047;-74
2021/08/26 02:52:12;;;;;;;10.52;7.05;;;14.40;99.90;;;;;;5074847;28;20051;-75
2021/08/26 02:54:37;;;;;;;10.52;7.78;;;14.50;99.90;;;;;;5093449;28;20051;-74
2021/08/26 02:57:03;;;;;;;9.98;7.90;;;14.40;99.90;;;;;;5076925;28;20028;-73
2021/08/26 02:59:29;;;;;;;11.88;7.43;;;14.30;99.90;;;;;;5073226;28;20031;-74
2021/08/26 03:01:54;;;;;;;11.18;8.13;;;14.20;99.90;;;;;;5071891;28;20024;-74
2021/08/26 03:04:19;;;;;;;13.23;8.20;;;14.10;99.90;;;;;;5072982;28;20191;-74
2021/08/26 03:06:45;;;;;;;11.05;9.00;;;14.10;99.90;;;;;;5072831;28;20079;-73
2021/08/26 03:09:10;;;;;;;10.98;8.68;;;14.00;99.90;;;;;;5073060;28;20478;-73
2021/08/26 03:11:36;;;;;;;13.80;9.70;;;14.00;99.90;;;;;;5071774;28;20025;-74
2021/08/26 03:14:01;;;;;;;13.35;9.68;;;13.80;99.90;;;;;;5075188;28;20547;-74
2021/08/26 03:16:27;;;;;;;14.32;9.18;;;13.80;99.90;;;;;;5088441;28;20024;-74
2021/08/26 03:18:52;;;;;;;14.48;10.57;;;13.70;99.90;;;;;;5072948;28;20059;-74
2021/08/26 03:21:18;;;;;;;17.15;11.43;;;13.50;99.90;;;;;;5086093;28;20032;-74
2021/08/26 03:23:43;;;;;;;19.17;11.85;;;13.30;99.90;;;;;;5091868;28;20067;-73
2021/08/26 03:26:09;;;;;;;16.42;11.45;;;13.50;99.90;;;;;;5076286;28;20059;-73
2021/08/26 03:28:34;;;;;;;14.98;10.27;;;13.70;99.90;;;;;;5072686;28;20169;-73
2021/08/26 03:31:00;;;;;;;15.18;11.00;;;13.70;99.90;;;;;;5071307;28;20046;-73
2021/08/26 03:33:25;;;;;;;19.33;12.55;;;13.70;99.90;;;;;;5072514;28;20032;-73
2021/08/26 03:35:51;;;;;;;18.77;13.68;;;13.70;99.90;;;;;;5085644;28;20107;-73
2021/08/26 03:38:16;;;;;;;16.50;11.80;;;13.60;99.90;;;;;;5072395;28;20056;-73
2021/08/26 03:40:42;;;;;;;18.90;13.85;;;13.50;99.90;;;;;;5071131;28;20021;-75
2021/08/26 03:43:08;;;;;;;18.60;14.57;;;13.40;99.90;;;;;;5072269;28;20041;-74
2021/08/26 03:45:34;;;;;;;18.02;13.93;;;13.40;99.90;;;;;;5072017;28;20028;-73
2021/08/26 03:47:59;;;;;;;21.88;15.38;;;13.40;99.90;;;;;;5072735;28;20068;-74
2021/08/26 03:50:25;;;;;;;22.05;15.68;;;13.30;99.90;;;;;;5071995;28;20024;-74
2021/08/26 03:52:50;;;;;;;25.23;16.90;;;13.40;99.90;;;;;;5081192;28;20059;-73
2021/08/26 03:55:16;;;;;;;21.23;16.05;;;13.30;99.90;;;;;;5076653;28;20028;-73
2021/08/26 03:57:41;;;;;;;26.73;17.92;;;13.30;99.90;;;;;;5072125;28;20025;-74
2021/08/26 04:00:08;;;;;;;25.15;18.02;;;13.30;99.90;;;;;;5072019;28;20108;-72
2021/08/26 04:02:34;;;;;;;24.38;16.45;;;13.20;99.90;;;;;;5080819;28;20070;-73
2021/08/26 04:04:59;;;;;;;23.27;18.02;;;13.20;99.90;;;;;;5088896;28;20028;-74
2021/08/26 04:07:25;;;;;;;26.88;18.73;;;13.30;99.90;;;;;;5080270;28;20059;-74
2021/08/26 04:09:51;;;;;;;29.60;21.33;;;13.40;99.90;;;;;;5092177;28;20070;-73
2021/08/26 04:12:17;;;;;;;26.83;19.90;;;13.30;99.90;;;;;;5092066;28;20498;-73
2021/08/26 04:14:42;;;;;;;22.33;17.80;;;13.20;99.90;;;;;;5091840;28;20474;-73
2021/08/26 04:17:08;;;;;;;34.67;23.15;;;13.20;99.90;;;;;;5092101;28;20080;-73
2021/08/26 04:19:34;;;;;;;29.63;19.15;;;13.20;99.90;;;;;;5091979;28;20046;-73
2021/08/26 04:21:59;;;;;;;30.00;20.90;;;13.20;99.90;;;;;;5081956;28;20033;-73
2021/08/26 04:24:25;;;;;;;25.08;19.67;;;13.30;99.90;;;;;;5085319;28;20028;-72
2021/08/26 04:26:50;;;;;;;32.13;21.83;;;13.40;99.90;;;;;;5070727;28;20043;-73
2021/08/26 04:29:16;;;;;;;31.05;20.63;;;13.30;99.90;;;;;;5073127;28;20027;-75
2021/08/26 04:31:41;;;;;;;31.80;21.95;;;13.20;99.90;;;;;;5083893;28;20025;-74
2021/08/26 04:34:07;;;;;;;29.27;22.25;;;13.20;99.90;;;;;;5086141;28;20027;-73
2021/08/26 04:36:33;;;;;;;32.70;23.25;;;13.20;99.90;;;;;;5084079;28;20074;-73
2021/08/26 04:38:58;;;;;;;31.58;24.00;;;13.20;99.90;;;;;;5071675;28;20036;-73
2021/08/26 04:41:24;;;;;;;30.33;22.20;;;13.00;99.90;;;;;;5070406;28;20024;-74
2021/08/26 04:43:50;;;;;;;31.70;23.05;;;13.00;99.90;;;;;;5072215;28;20027;-74
2021/08/26 04:46:15;;;;;;;35.75;23.58;;;13.10;99.90;;;;;;5091607;28;20028;-73
2021/08/26 04:48:41;;;;;;;34.25;23.60;;;13.10;99.90;;;;;;5077994;28;20017;-73
2021/08/26 04:51:06;;;;;;;33.92;24.90;;;13.30;99.90;;;;;;5090563;28;20020;-74
2021/08/26 04:53:32;;;;;;;37.58;25.70;;;13.20;99.90;;;;;;5076552;28;20387;-73
2021/08/26 04:55:57;;;;;;;37.17;24.80;;;13.10;99.90;;;;;;5084705;28;20060;-72
2021/08/26 04:58:24;;;;;;;33.03;23.23;;;13.10;99.90;;;;;;5085280;28;20028;-72
2021/08/26 05:00:50;;;;;;;35.42;24.13;;;13.20;99.90;;;;;;5091770;28;20482;-73
2021/08/26 05:03:15;;;;;;;33.90;25.10;;;13.10;99.90;;;;;;5091580;28;20039;-74
2021/08/26 05:05:41;;;;;;;34.97;24.30;;;13.20;99.90;;;;;;5077772;28;20035;-73
2021/08/26 05:08:06;;;;;;;29.63;22.85;;;13.20;99.90;;;;;;5078512;28;20035;-73
2021/08/26 05:10:32;;;;;;;36.13;25.23;;;13.20;99.90;;;;;;5071458;28;20031;-73
2021/08/26 05:12:57;;;;;;;42.65;27.58;;;13.20;99.90;;;;;;5070072;28;20510;-74
2021/08/26 05:15:23;;;;;;;29.65;22.52;;;13.30;99.90;;;;;;5083332;28;20032;-74
2021/08/26 05:17:49;;;;;;;30.05;22.63;;;13.40;99.90;;;;;;5085107;28;20024;-73
2021/08/26 05:20:14;;;;;;;36.08;24.88;;;13.80;99.90;;;;;;5071258;28;20434;-72
2021/08/26 05:22:40;;;;;;;35.28;24.65;;;13.50;99.90;;;;;;5069864;28;20120;-75
2021/08/26 05:25:06;;;;;;;32.40;24.10;;;13.40;99.90;;;;;;5071192;28;20056;-73
2021/08/26 05:27:31;;;;;;;34.33;23.70;;;13.40;99.90;;;;;;5071040;28;20060;-73
2021/08/26 05:29:56;;;;;;;27.35;21.65;;;13.30;99.90;;;;;;5069950;28;20027;-73
2021/08/26 05:32:22;;;;;;;29.50;23.05;;;13.20;99.90;;;;;;5074263;28;20039;-73
2021/08/26 05:34:48;;;;;;;27.60;19.77;;;13.30;99.90;;;;;;5082212;28;20032;-73
2021/08/26 05:37:13;;;;;;;27.65;22.02;;;13.40;99.90;;;;;;5091205;28;20394;-73
2021/08/26 05:39:39;;;;;;;31.92;24.05;;;13.40;99.90;;;;;;5074826;28;20099;-73
2021/08/26 05:42:04;;;;;;;31.80;24.20;;;13.30;99.90;;;;;;5074740;28;20390;-73
2021/08/26 05:44:30;;;;;;;30.23;22.40;;;13.30;99.90;;;;;;5081271;28;20116;-73
2021/08/26 05:46:55;;;;;;;31.65;22.40;;;13.40;99.90;;;;;;5094753;28;20024;-73
2021/08/26 05:49:21;;;;;;;35.45;24.02;;;13.40;99.90;;;;;;5077108;28;20028;-73
2021/08/26 05:51:47;;;;;;;31.63;24.67;;;13.40;99.90;;;;;;5095965;28;20416;-73
2021/08/26 05:54:12;;;;;;;35.42;25.38;;;13.40;99.90;;;;;;5084881;28;20146;-73
2021/08/26 05:56:38;;;;;;;31.40;24.83;;;13.40;99.90;;;;;;5088094;27;20024;-73
2021/08/26 05:59:03;;;;;;;33.75;24.88;;;13.50;99.90;;;;;;5074433;28;20394;-73
2021/08/26 06:01:30;;;;;;;32.50;25.70;;;13.50;99.90;;;;;;5074499;28;20036;-73
2021/08/26 06:03:56;;;;;;;34.05;26.42;;;13.50;99.90;;;;;;5080762;28;20074;-73
2021/08/26 06:06:21;;;;;;;33.97;25.88;;;13.50;99.90;;;;;;5094275;28;20023;-73
2021/08/26 06:08:48;;;;;;;33.70;25.77;;;13.70;99.90;;;;;;5094455;28;20416;-73
2021/08/26 06:11:14;;;;;;;29.55;24.42;;;13.80;99.90;;;;;;5094631;28;20482;-73
2021/08/26 06:13:39;;;;;;;32.83;24.38;;;13.80;99.90;;;;;;5094373;28;20103;-73
2021/08/26 06:16:05;;;;;;;24.60;20.85;;;13.70;99.90;;;;;;5094848;28;20028;-74
2021/08/26 06:18:30;;;;;;;29.92;22.02;;;13.80;99.90;;;;;;5094011;28;20029;-74
2021/08/26 06:20:56;;;;;;;26.58;21.38;;;13.90;99.90;;;;;;5094400;28;20085;-72
2021/08/26 06:23:22;;;;;;;30.08;22.92;;;14.00;99.90;;;;;;5087577;28;20032;-74
2021/08/26 06:25:48;;;;;;;29.55;22.63;;;14.00;99.90;;;;;;5087300;28;20080;-75
2021/08/26 06:28:13;;;;;;;24.90;20.30;;;14.00;99.90;;;;;;5087548;28;20027;-75
2021/08/26 06:30:39;;;;;;;22.58;19.30;;;14.10;99.90;;;;;;5086072;28;20023;-75
2021/08/26 06:33:05;;;;;;;25.23;20.27;;;14.10;99.90;;;;;;5072662;28;20025;-73
2021/08/26 06:35:31;;;;;;;21.05;17.48;;;14.10;99.90;;;;;;5087496;28;20498;-74
2021/08/26 06:37:57;;;;;;;20.80;18.58;;;14.20;99.90;;;;;;5080653;28;20016;-73
2021/08/26 06:40:23;;;;;;;20.08;16.10;;;14.30;99.90;;;;;;5080331;28;20126;-74
2021/08/26 06:42:48;;;;;;;18.98;16.00;;;14.30;99.90;;;;;;5087012;28;20387;-74
2021/08/26 06:45:14;;;;;;;20.88;16.45;;;14.40;99.90;;;;;;5086880;28;20028;-74
2021/08/26 06:47:39;;;;;;;17.95;14.23;;;14.50;99.90;;;;;;5078719;28;20028;-74
2021/08/26 06:50:05;;;;;;;13.73;12.00;;;14.50;99.90;;;;;;5079789;28;20031;-74
2021/08/26 06:52:31;;;;;;;11.27;8.35;;;14.60;99.90;;;;;;5085787;28;20036;-73
2021/08/26 06:54:56;;;;;;;9.57;7.70;;;14.60;99.90;;;;;;5073420;28;20095;-73
2021/08/26 06:57:24;;;;;;;9.90;7.03;;;14.50;99.90;;;;;;5079858;28;20106;-75
2021/08/26 06:59:49;;;;;;;10.00;7.68;;;14.70;99.90;;;;;;5080311;28;20024;-73
2021/08/26 07:02:15;;;;;;;7.65;6.53;;;14.80;99.90;;;;;;5086849;28;20086;-74
2021/08/26 07:04:40;;;;;;;9.68;7.00;;;14.90;99.90;;;;;;5085083;28;20510;-74
2021/08/26 07:07:06;;;;;;;10.57;7.40;;;14.80;99.90;;;;;;5079857;28;20438;-73
2021/08/26 07:09:31;;;;;;;7.90;6.50;;;14.80;99.90;;;;;;5093557;28;20032;-73
2021/08/26 07:11:57;;;;;;;6.72;6.00;;;14.90;99.90;;;;;;5079818;28;20027;-73
2021/08/26 07:14:22;;;;;;;9.77;5.25;;;14.90;99.90;;;;;;5079899;28;20028;-74
2021/08/26 07:16:48;;;;;;;6.85;4.93;;;14.70;99.90;;;;;;5086886;28;20041;-73
2021/08/26 07:19:13;;;;;;;6.32;4.53;;;14.80;99.90;;;;;;5073008;28;20028;-74
2021/08/26 07:21:39;;;;;;;7.95;5.00;;;14.80;99.90;;;;;;5077060;28;20032;-76
2021/08/26 07:24:04;;;;;;;5.85;4.40;;;14.70;99.90;;;;;;5071605;28;20078;-73
2021/08/26 07:26:30;;;;;;;8.15;3.80;;;14.70;99.90;;;;;;5086125;28;20029;-73
2021/08/26 07:28:55;;;;;;;7.30;3.65;;;14.60;99.90;;;;;;5071673;28;20028;-73
2021/08/26 07:31:22;;;;;;;8.43;3.83;;;14.50;99.90;;;;;;5086157;28;20025;-75
2021/08/26 07:33:48;;;;;;;6.15;3.58;;;14.60;99.90;;;;;;5085787;28;20039;-74
2021/08/26 07:36:14;;;;;;;7.95;3.67;;;14.80;99.90;;;;;;5079060;28;20545;-74
2021/08/26 07:38:39;;;;;;;6.47;4.03;;;15.10;99.90;;;;;;5079825;28;20093;-75
2021/08/26 07:41:05;;;;;;;5.97;3.67;;;15.20;99.90;;;;;;5092436;28;20055;-73
2021/08/26 07:43:31;;;;;;;8.15;4.30;;;15.20;99.90;;;;;;5079682;28;20119;-74
2021/08/26 07:46:00;;;;;;;5.68;4.28;;;15.30;99.90;;;;;;5084617;28;20115;-73
2021/08/26 07:48:25;;;;;;;6.10;4.15;;;15.40;99.90;;;;;;5085582;28;20016;-75
2021/08/26 07:50:53;;;;;;;5.68;4.10;;;15.10;99.90;;;;;;5072821;28;20039;-74
2021/08/26 07:53:20;;;;;;;6.60;4.70;;;15.00;99.90;;;;;;5085193;28;20149;-74
2021/08/26 07:55:45;;;;;;;7.50;4.50;;;15.20;99.90;;;;;;5072479;28;20031;-73
2021/08/26 07:58:11;;;;;;;5.68;3.80;;;15.40;99.90;;;;;;5084133;28;20024;-74
2021/08/26 08:00:37;;;;;;;5.78;4.10;;;15.50;99.90;;;;;;5078607;28;20028;-74
2021/08/26 08:03:03;;;;;;;3.97;3.38;;;15.60;99.90;;;;;;5079433;28;20028;-74
2021/08/26 08:05:29;;;;;;;4.78;3.40;;;15.70;99.90;;;;;;5085566;28;20386;-73
2021/08/26 08:07:55;;;;;;;5.40;3.20;;;16.00;99.90;;;;;;5084968;28;20104;-74
2021/08/26 08:10:20;;;;;;;5.72;3.38;;;15.40;99.90;;;;;;5078699;28;20051;-73
2021/08/26 08:12:46;;;;;;;4.82;3.08;;;15.30;99.90;;;;;;5092216;28;20031;-74
2021/08/26 08:15:11;;;;;;;5.70;3.20;;;15.40;99.90;;;;;;5084467;28;20506;-73
2021/08/26 08:17:37;;;;;;;4.55;3.20;;;15.60;99.90;;;;;;5079388;28;20033;-73
2021/08/26 08:20:05;;;;;;;4.15;3.15;;;15.90;99.90;;;;;;5091628;28;20204;-74
2021/08/26 08:22:30;;;;;;;4.25;2.63;;;15.90;99.90;;;;;;5078727;28;20027;-75
2021/08/26 08:24:56;;;;;;;5.53;2.80;;;15.60;99.90;;;;;;5085185;28;20475;-73
2021/08/26 08:27:21;;;;;;;3.13;2.20;;;15.60;99.90;;;;;;5085075;28;20493;-73
2021/08/26 08:29:47;;;;;;;3.67;2.30;;;15.60;99.90;;;;;;5078445;28;20020;-73
2021/08/26 08:32:14;;;;;;;5.00;2.65;;;15.80;99.90;;;;;;5079133;28;20054;-74
2021/08/26 08:34:39;;;;;;;4.53;2.30;;;15.80;99.90;;;;;;5085227;28;20045;-74
2021/08/26 08:37:05;;;;;;;2.70;2.25;;;16.10;99.90;;;;;;5084736;28;20076;-73
2021/08/26 08:39:31;;;;;;;3.38;1.90;;;15.90;99.90;;;;;;5078717;28;20135;-74
2021/08/26 08:41:56;;;;;;;3.25;2.03;;;16.00;99.90;;;;;;5080117;28;20024;-73
2021/08/26 08:44:22;;;;;;;3.28;2.30;;;15.70;99.90;;;;;;5084397;28;20032;-73
2021/08/26 08:46:49;;;;;;;5.38;2.00;;;15.60;99.90;;;;;;5084343;28;20024;-74
2021/08/26 08:49:19;;;;;;;3.38;1.88;;;16.00;99.90;;;;;;5077206;28;20371;-73
2021/08/26 08:51:45;;;;;;;3.35;2.20;;;16.70;99.90;;;;;;5078334;28;20021;-74
2021/08/26 08:54:10;;;;;;;3.72;2.08;;;16.50;99.90;;;;;;5091766;28;20030;-73
2021/08/26 08:56:36;;;;;;;3.72;2.75;;;16.20;99.90;;;;;;5091711;28;20027;-74
2021/08/26 08:59:03;;;;;;;3.50;2.08;;;16.20;99.90;;;;;;5078240;28;20047;-74
2021/08/26 09:01:29;;;;;;;5.97;2.67;;;16.20;99.90;;;;;;5078425;28;20020;-74
2021/08/26 09:03:55;;;;;;;5.97;2.40;;;16.20;99.90;;;;;;5083527;28;20061;-73
2021/08/26 09:06:20;;;;;;;4.53;2.25;;;16.60;99.90;;;;;;5071381;28;20082;-75
2021/08/26 09:09:04;;;;;;;4.68;2.08;;;16.80;99.90;;;;;;5091603;28;20020;-75
2021/08/26 09:11:30;;;;;;;4.25;2.25;;;16.80;99.90;;;;;;5088487;28;20016;-74
2021/08/26 09:13:56;;;;;;;3.88;2.20;;;16.40;99.90;;;;;;5076041;28;20063;-74
2021/08/26 09:16:39;;;;;;;5.35;2.20;;;16.20;99.90;;;;;;5095449;28;20071;-73
2021/08/26 09:19:21;;;;;;;4.20;1.92;;;16.50;99.90;;;;;;5083956;28;20036;-73
2021/08/26 09:21:48;;;;;;;3.13;2.10;;;17.20;99.90;;;;;;5082137;28;20024;-73
2021/08/26 09:24:14;;;;;;;5.80;2.40;;;17.00;99.90;;;;;;5081829;28;20506;-73
2021/08/26 09:26:42;;;;;;;3.85;1.77;;;16.50;99.90;;;;;;5087050;28;20028;-73
2021/08/26 09:29:10;;;;;;;5.15;2.30;;;16.30;99.90;;;;;;5088682;28;20051;-73
2021/08/26 09:31:36;;;;;;;3.92;2.03;;;16.00;99.90;;;;;;5082672;28;20474;-73
2021/08/26 09:34:09;;;;;;;5.22;2.30;;;15.90;99.90;;;;;;5080383;28;20029;-74
2021/08/26 09:36:46;;;;;;;5.43;2.35;;;15.90;99.90;;;;;;5085199;28;20438;-74
2021/08/26 09:39:16;;;;;;;4.22;2.05;;;16.00;99.90;;;;;;5088510;28;20051;-73
2021/08/26 09:41:44;;;;;;;4.28;2.40;;;16.60;99.90;;;;;;5085659;28;20118;-74
2021/08/26 09:44:12;;;;;;;4.78;2.25;;;17.00;99.90;;;;;;5090877;28;20436;-74
2021/08/26 09:46:39;;;;;;;4.75;2.55;;;17.50;99.90;;;;;;5086072;28;20486;-74
2021/08/26 09:49:13;;;;;;;4.38;2.10;;;17.70;99.90;;;;;;5090379;28;20024;-73
2021/08/26 09:51:39;;;;;;;4.88;2.08;;;17.80;99.90;;;;;;5087017;28;20094;-73
2021/08/26 09:54:31;;;;;;;4.55;2.35;;;17.10;99.90;;;;;;5081140;28;20038;-74
2021/08/26 09:56:57;;;;;;;3.88;2.38;;;16.80;99.90;;;;;;5081050;28;20024;-73
2021/08/26 09:59:43;;;;;;;6.15;2.90;;;17.20;99.90;;;;;;5085767;28;20082;-73
2021/08/26 10:02:09;;;;;;;3.85;2.10;;;17.70;99.90;;;;;;5088117;28;20078;-74
2021/08/26 10:04:35;;;;;;;3.63;2.00;;;17.60;99.90;;;;;;5085788;28;20029;-73
2021/08/26 10:07:01;;;;;;;4.70;2.30;;;17.40;99.90;;;;;;5089806;28;20028;-74
2021/08/26 10:09:27;;;;;;;3.42;2.17;;;17.70;99.90;;;;;;5094095;28;20020;-73
2021/08/26 10:11:53;;;;;;;4.70;2.53;;;17.60;99.90;;;;;;5090138;28;20684;-73
2021/08/26 10:14:18;;;;;;;5.80;2.40;;;17.40;99.90;;;;;;5086427;28;20051;-74
2021/08/26 10:16:44;;;;;;;3.55;2.30;;;17.30;99.90;;;;;;5089245;28;20400;-74
2021/08/26 10:19:13;;;;;;;4.28;2.15;;;17.60;99.90;;;;;;5090711;28;20032;-74
2021/08/26 10:21:39;;;;;;;3.03;1.70;;;18.20;99.90;;;;;;5092939;28;20146;-74
2021/08/26 10:24:06;;;;;;;5.18;2.90;;;18.40;99.90;;;;;;5088378;28;20153;-74
2021/08/26 10:26:32;;;;;;;4.68;2.08;;;18.40;99.90;;;;;;5090360;28;20024;-74
2021/08/26 10:28:58;;;;;;;3.50;2.03;;;18.70;99.90;;;;;;5089806;28;20027;-74
2021/08/26 10:31:29;;;;;;;3.17;2.15;;;18.30;99.90;;;;;;5089618;28;20018;-75
2021/08/26 10:34:13;;;;;;;5.00;2.35;;;18.20;99.90;;;;;;5091542;28;20023;-74
2021/08/26 10:36:48;;;;;;;5.50;2.22;;;17.70;99.90;;;;;;5103060;28;20032;-74
2021/08/26 10:39:42;;;;;;;3.67;2.13;;;17.40;99.90;;;;;;5084671;28;20028;-74
2021/08/26 10:42:17;;;;;;;4.60;1.95;;;17.50;99.90;;;;;;5089353;28;20111;-74
2021/08/26 10:45:20;;;;;;;2.78;2.00;;;17.40;99.90;;;;;;5084637;28;20490;-74
2021/08/26 10:47:49;;;;;;;2.92;1.90;;;17.90;99.90;;;;;;5061112;28;20071;-74
2021/08/26 10:50:17;;;;;;;3.60;2.13;;;18.50;99.90;;;;;;5087843;28;20059;-74
2021/08/26 10:53:04;;;;;;;3.67;2.17;;;18.60;99.90;;;;;;5090497;28;20024;-73
2021/08/26 10:55:46;;;;;;;5.57;2.13;;;18.60;99.90;;;;;;5084803;28;20051;-74
2021/08/26 10:58:24;;;;;;;3.17;1.70;;;18.90;99.90;;;;;;5088275;28;20082;-74
2021/08/26 11:00:50;;;;;;;5.20;2.20;;;18.40;99.90;;;;;;5086066;28;20078;-74
2021/08/26 11:03:34;;;;;;;2.72;2.10;;;18.00;99.90;;;;;;5088582;28;20024;-74
2021/08/26 11:06:21;;;;;;;4.22;2.15;;;17.50;99.90;;;;;;5089745;28;20390;-74
2021/08/26 11:09:10;;;;;;;5.40;2.53;;;17.40;99.90;;;;;;5085310;28;20012;-74
2021/08/26 11:11:37;;;;;;;2.80;2.03;;;17.40;99.90;;;;;;5079862;28;20032;-74
2021/08/26 11:14:03;;;;;;;5.55;2.25;;;18.00;99.90;;;;;;5080161;28;20023;-75
2021/08/26 11:16:28;;;;;;;3.28;1.83;;;17.90;99.90;;;;;;5087273;28;20024;-74
2021/08/26 11:19:18;;;;;;;5.30;2.10;;;18.70;99.90;;;;;;5079577;28;20429;-74
2021/08/26 11:21:44;;;;;;;4.85;2.72;;;18.90;99.90;;;;;;5078453;28;20082;-74
2021/08/26 11:24:10;;;;;;;5.03;2.00;;;18.20;99.90;;;;;;5084640;28;20028;-75
2021/08/26 11:26:52;;;;;;;3.28;2.30;;;18.00;99.90;;;;;;5091010;28;20024;-74
2021/08/26 11:29:17;;;;;;;5.15;2.28;;;17.90;99.90;;;;;;5087244;28;20497;-75
2021/08/26 11:31:55;;;;;;;4.07;2.75;;;18.00;99.90;;;;;;5078671;28;20497;-74
2021/08/26 11:34:22;;;;;;;4.53;2.22;;;17.80;99.90;;;;;;5085640;28;20032;-74
2021/08/26 11:37:03;;;;;;;4.28;2.08;;;17.70;99.90;;;;;;5087695;28;20395;-74
2021/08/26 11:39:32;;;;;;;6.43;3.75;;;17.60;99.90;;;;;;5081296;28;20394;-73
2021/08/26 11:41:59;;;;;;;7.50;2.65;;;17.50;99.90;;;;;;5083548;28;20042;-75
2021/08/26 11:44:26;;;;;;;5.65;2.95;;;17.40;99.90;;;;;;5089392;28;20020;-74
2021/08/26 11:46:51;;;;;;;4.57;2.80;;;17.60;99.90;;;;;;5089876;28;20020;-73
2021/08/26 11:49:17;;;;;;;4.45;2.53;;;17.40;99.90;;;;;;5078183;28;20021;-73
2021/08/26 11:51:42;;;;;;;5.78;2.50;;;17.40;99.90;;;;;;5085759;28;20031;-74
2021/08/26 11:54:19;;;;;;;5.57;2.60;;;17.30;99.90;;;;;;5086531;28;20536;-74
2021/08/26 11:56:53;;;;;;;4.93;2.10;;;17.50;99.90;;;;;;5072736;28;20028;-74
2021/08/26 11:59:36;;;;;;;4.47;2.10;;;18.30;99.90;;;;;;5084055;28;20024;-74
2021/08/26 12:02:23;;;;;;;4.13;1.90;;;18.80;99.90;;;;;;5085737;28;20029;-74
2021/08/26 12:04:55;;;;;;;2.97;2.08;;;19.10;99.90;;;;;;5085546;28;20111;-74
2021/08/26 12:07:26;;;;;;;4.30;2.42;;;19.50;99.90;;;;;;5080075;28;20032;-73
2021/08/26 12:10:05;;;;;;;3.75;2.08;;;19.70;99.90;;;;;;5078879;28;20052;-73
2021/08/26 12:12:31;;;;;;;2.92;2.05;;;20.00;99.90;;;;;;5082210;28;20021;-74
2021/08/26 12:14:59;;;;;;;3.80;2.17;;;20.50;99.90;;;;;;5089814;28;20524;-74
2021/08/26 12:17:25;;;;;;;4.15;2.13;;;19.90;99.90;;;;;;5092223;28;20089;-75
2021/08/26 12:19:54;;;;;;;3.55;2.13;;;20.00;99.90;;;;;;5078675;28;20028;-74
2021/08/26 12:22:23;;;;;;;4.00;1.80;;;19.50;99.90;;;;;;5080771;28;20021;-73
2021/08/26 12:24:54;;;;;;;3.40;1.85;;;19.20;99.90;;;;;;5085390;28;20071;-73
2021/08/26 12:27:20;;;;;;;4.10;2.15;;;18.90;99.90;;;;;;5071926;28;20031;-74
2021/08/26 12:29:47;;;;;;;6.18;2.17;;;18.60;99.90;;;;;;5077475;28;20103;-74
2021/08/26 12:32:36;;;;;;;3.95;2.25;;;18.50;99.90;;;;;;5079530;28;20017;-74
2021/08/26 12:35:25;;;;;;;2.75;1.90;;;18.00;99.90;;;;;;5080591;28;20089;-75
2021/08/26 12:37:55;;;;;;;2.85;2.10;;;18.30;99.90;;;;;;5073258;28;20021;-73
2021/08/26 12:40:21;;;;;;;5.43;2.22;;;18.70;99.90;;;;;;5084243;28;20107;-74
2021/08/26 12:43:02;;;;;;;3.92;2.13;;;20.10;99.90;;;;;;5086283;28;20496;-74
2021/08/26 12:45:28;;;;;;;4.03;2.10;;;20.50;99.90;;;;;;5085199;28;20027;-74
2021/08/26 12:47:53;;;;;;;3.10;1.83;;;20.40;99.90;;;;;;5080514;28;20016;-75
2021/08/26 12:50:26;;;;;;;3.50;1.70;;;20.10;99.90;;;;;;5095213;28;20024;-74